Time;durP1;ratioP1;P1;durP2;ratioP2;P2;SDS_P1;SDS_P2;PMS_P1;PMS_P2;Temp;Humidity;BMP_temperature;BMP_pressure;BME280_temperature;BME280_humidity;BME280_pressure;Samples;Min_cycle;Max_cycle;Signal;HPM_P1;HPM_P2
2022/05/22 00:02:11;;;;;;;5.43;1.67;;;15.60;59.00;;;16.14;49.34;97834.13;5027475;28;20342;-51
2022/05/22 00:04:39;;;;;;;2.13;1.55;;;15.60;59.10;;;16.13;49.48;97830.63;5029336;28;20060;-49
2022/05/22 00:07:08;;;;;;;2.20;1.40;;;15.60;59.10;;;16.12;49.64;97828.13;5028022;28;20060;-53
2022/05/22 00:09:37;;;;;;;2.42;1.60;;;15.70;59.10;;;16.12;49.68;97834.31;5027335;28;20041;-50
2022/05/22 00:12:08;;;;;;;2.80;1.63;;;15.60;59.30;;;16.13;49.71;97827.13;5026647;28;20075;-47
2022/05/22 00:14:36;;;;;;;3.28;1.42;;;15.70;59.40;;;16.11;49.55;97827.31;5043150;28;20439;-47
2022/05/22 00:17:06;;;;;;;2.78;1.73;;;15.60;59.30;;;16.06;49.81;97826.22;5028190;28;20421;-49
2022/05/22 00:19:35;;;;;;;6.03;1.88;;;15.50;59.50;;;16.03;49.64;97826.56;5027370;28;20049;-50
2022/05/22 00:22:06;;;;;;;3.47;1.80;;;15.50;59.60;;;16.01;49.93;97817.88;5026711;28;20049;-51
2022/05/22 00:24:35;;;;;;;4.45;2.55;;;15.50;60.00;;;15.97;49.91;97814.75;5027537;28;20408;-52
2022/05/22 00:27:04;;;;;;;2.63;1.42;;;15.40;60.00;;;15.96;50.08;97813.09;5026782;28;20361;-49
2022/05/22 00:29:36;;;;;;;2.90;1.98;;;15.40;60.00;;;15.95;49.88;97816.78;5028063;28;20045;-49
2022/05/22 00:32:06;;;;;;;4.10;2.03;;;15.40;59.90;;;15.92;49.78;97818.03;5026620;28;20061;-48
2022/05/22 00:34:36;;;;;;;4.32;2.03;;;15.30;59.90;;;15.82;49.94;97813.97;5027818;28;20672;-49
2022/05/22 00:37:06;;;;;;;3.05;2.08;;;15.20;61.70;;;15.77;49.96;97805.69;5027449;28;20057;-48
2022/05/22 00:39:35;;;;;;;2.70;1.95;;;15.10;61.00;;;15.75;50.35;97811.22;5042066;28;20069;-50
2022/05/22 00:42:18;;;;;;;4.25;2.72;;;15.10;61.90;;;15.69;50.54;97809.28;5026328;28;20053;-51
2022/05/22 00:44:48;;;;;;;4.97;2.72;;;15.10;62.60;;;15.65;50.46;97814.19;5041613;28;20053;-50
2022/05/22 00:47:16;;;;;;;2.88;1.98;;;15.00;61.70;;;15.59;50.76;97806.06;5026459;28;20045;-49
2022/05/22 00:49:45;;;;;;;3.13;1.80;;;14.90;62.00;;;15.55;50.86;97801.06;5026978;28;20422;-49
2022/05/22 00:52:27;;;;;;;3.22;1.80;;;15.00;61.90;;;15.55;50.59;97789.53;5026326;28;20050;-53
2022/05/22 00:55:02;;;;;;;3.17;2.10;;;15.00;62.60;;;15.54;50.94;97798.56;5027257;28;20256;-53
2022/05/22 00:57:50;;;;;;;2.30;1.80;;;15.00;62.30;;;15.49;51.12;97801.84;5024679;28;20442;-52
2022/05/22 01:00:23;;;;;;;2.83;1.80;;;14.80;62.30;;;15.46;51.21;97793.31;5025834;28;20056;-50
2022/05/22 01:05:49;;;;;;;5.20;2.10;;;14.90;62.80;;;15.41;51.05;97803.78;5027180;28;20087;-50
2022/05/22 01:08:18;;;;;;;2.83;2.03;;;14.80;62.50;;;15.36;51.52;97793.63;5028672;28;20058;-48
2022/05/22 01:10:53;;;;;;;2.90;1.70;;;14.70;63.00;;;15.30;51.41;97789.03;5040712;28;20060;-50
2022/05/22 01:13:38;;;;;;;4.40;2.17;;;14.70;63.10;;;15.25;51.52;97773.47;5026157;28;20049;-51
2022/05/22 01:16:07;;;;;;;2.10;1.60;;;14.70;63.90;;;15.22;51.47;97776.53;5026540;28;20359;-48
2022/05/22 01:18:53;;;;;;;5.43;2.00;;;14.60;63.00;;;15.16;51.65;97774.63;5026437;28;20053;-49
2022/05/22 01:21:31;;;;;;;3.83;1.73;;;14.60;64.20;;;15.14;51.46;97785.53;5025125;28;20079;-49
2022/05/22 01:23:59;;;;;;;2.78;1.65;;;14.50;63.80;;;15.13;51.62;97785.72;5025654;28;20192;-49
2022/05/22 01:26:32;;;;;;;2.22;1.73;;;14.60;63.20;;;15.15;51.87;97786.34;5025171;28;20248;-50
2022/05/22 01:29:26;;;;;;;2.53;1.85;;;14.60;63.30;;;15.10;52.10;97786.91;5025293;28;20229;-49
2022/05/22 01:31:54;;;;;;;3.28;1.90;;;14.60;63.70;;;15.06;52.21;97787.47;5027800;28;20061;-51
2022/05/22 01:34:22;;;;;;;2.40;1.80;;;14.50;64.10;;;15.04;52.23;97787.63;5026219;28;20049;-48
2022/05/22 01:36:53;;;;;;;2.80;1.63;;;14.50;64.20;;;15.05;52.15;97785.81;5025315;28;20076;-52
2022/05/22 01:39:21;;;;;;;1.90;1.60;;;14.50;63.90;;;15.03;52.04;97786.00;5023411;28;20067;-52
2022/05/22 01:41:51;;;;;;;3.05;1.90;;;14.50;63.80;;;15.04;52.11;97784.97;5023586;28;20056;-51
2022/05/22 01:44:21;;;;;;;5.65;1.90;;;14.50;64.00;;;15.00;52.33;97791.72;5024821;28;20060;-49
2022/05/22 01:46:49;;;;;;;2.92;1.92;;;14.40;64.00;;;14.98;52.18;97772.31;5024222;28;20055;-49
2022/05/22 01:49:17;;;;;;;4.90;1.85;;;14.40;64.00;;;14.95;52.38;97778.06;5025485;28;20339;-49
2022/05/22 01:51:45;;;;;;;4.07;1.60;;;14.40;64.30;;;14.93;52.60;97783.59;5026420;28;20053;-50
2022/05/22 01:54:13;;;;;;;3.75;1.65;;;14.40;64.50;;;14.93;52.32;97780.91;5040097;28;20300;-51
2022/05/22 01:56:42;;;;;;;2.53;1.83;;;14.40;64.10;;;14.93;52.34;97788.13;5041072;28;20639;-52
2022/05/22 01:59:13;;;;;;;3.80;1.83;;;14.40;64.10;;;14.91;52.56;97785.63;5024157;28;20057;-48
2022/05/22 02:01:47;;;;;;;3.40;2.00;;;14.40;64.20;;;14.86;52.74;97776.47;5023764;28;20057;-48
2022/05/22 02:04:15;;;;;;;4.10;2.17;;;14.40;64.50;;;14.85;52.69;97766.75;5041964;28;20055;-50
2022/05/22 02:09:34;;;;;;;2.25;1.80;;;14.40;64.00;;;14.93;52.41;97766.69;5041223;28;20248;-51
2022/05/22 02:12:02;;;;;;;1.98;1.77;;;14.40;63.70;;;14.98;52.29;97771.47;5041006;28;20055;-52
2022/05/22 02:14:31;;;;;;;3.35;2.10;;;14.50;63.50;;;15.00;52.12;97769.44;5024401;28;20390;-51
2022/05/22 02:17:11;;;;;;;3.13;2.17;;;14.50;63.30;;;15.02;52.05;97762.88;5024520;28;20359;-51
2022/05/22 02:19:50;;;;;;;7.55;2.10;;;14.50;63.10;;;15.03;51.94;97753.81;5039873;28;20065;-50
2022/05/22 02:22:47;;;;;;;3.58;1.80;;;14.60;62.90;;;15.05;52.01;97750.97;5040357;28;20053;-48
2022/05/22 02:25:29;;;;;;;3.75;2.13;;;14.60;63.00;;;15.05;51.79;97742.91;5040696;28;20057;-50
2022/05/22 02:28:07;;;;;;;2.40;1.98;;;14.60;62.70;;;15.06;51.87;97755.28;5040505;28;20053;-49
2022/05/22 02:30:43;;;;;;;2.67;1.63;;;14.60;62.60;;;15.04;51.87;97747.44;5008954;28;20051;-52
2022/05/22 02:33:11;;;;;;;3.70;2.00;;;14.50;62.70;;;14.99;52.14;97749.84;5026557;28;20068;-52
2022/05/22 02:35:49;;;;;;;3.22;2.20;;;14.60;63.10;;;14.95;52.34;97753.94;5026093;28;20057;-50
2022/05/22 02:38:24;;;;;;;1.95;1.70;;;14.50;63.30;;;14.96;52.53;97747.53;5024462;28;20049;-53
2022/05/22 02:40:53;;;;;;;1.88;1.52;;;14.50;63.60;;;14.93;52.43;97745.25;5040498;28;20057;-51
2022/05/22 02:43:21;;;;;;;3.05;1.80;;;14.50;63.90;;;14.92;52.48;97748.94;5025181;28;20055;-51
2022/05/22 02:45:54;;;;;;;4.10;1.67;;;14.40;63.50;;;14.94;52.40;97737.00;5023457;28;20169;-53
2022/05/22 02:48:23;;;;;;;4.13;1.98;;;14.50;63.50;;;14.93;52.50;97732.66;5024046;28;20071;-54
2022/05/22 02:51:14;;;;;;;2.78;1.60;;;14.40;63.50;;;14.89;52.44;97728.69;5026304;28;20383;-52
2022/05/22 02:53:43;;;;;;;2.65;1.70;;;14.40;63.70;;;14.89;52.29;97733.25;5024236;28;20065;-52
2022/05/22 02:56:34;;;;;;;2.00;1.80;;;14.40;63.70;;;14.90;52.42;97724.97;5027448;28;20053;-51
2022/05/22 02:59:23;;;;;;;4.57;2.10;;;14.40;63.60;;;14.89;52.51;97728.69;5013189;28;20071;-51
2022/05/22 03:02:06;;;;;;;5.13;2.00;;;14.40;63.70;;;14.86;52.52;97723.69;5031993;28;20341;-54
2022/05/22 03:04:36;;;;;;;3.00;2.35;;;14.30;64.00;;;14.82;52.57;97716.22;5027373;28;20049;-51
2022/05/22 03:07:14;;;;;;;4.78;2.20;;;14.30;64.20;;;14.81;52.55;97715.41;5028370;28;20059;-51
2022/05/22 03:09:47;;;;;;;3.58;2.28;;;14.30;64.50;;;14.76;52.61;97715.94;5026933;28;20063;-52
2022/05/22 03:12:21;;;;;;;3.08;2.35;;;14.20;64.60;;;14.73;52.89;97712.81;5027259;28;20053;-49
2022/05/22 03:14:56;;;;;;;3.78;2.80;;;14.20;64.80;;;14.71;53.06;97702.28;5026786;28;20053;-53
2022/05/22 03:17:26;;;;;;;2.75;2.13;;;14.20;65.40;;;14.66;53.00;97696.66;5044153;28;20053;-54
2022/05/22 03:19:56;;;;;;;3.05;2.35;;;14.10;65.80;;;14.60;53.21;97701.91;5026345;28;20520;-51
2022/05/22 03:22:24;;;;;;;4.13;1.90;;;14.00;65.90;;;14.54;53.38;97700.78;5009934;28;20063;-51
2022/05/22 03:24:53;;;;;;;3.30;2.17;;;14.00;65.80;;;14.50;53.26;97700.31;5043002;28;20053;-53
2022/05/22 03:27:21;;;;;;;3.25;2.17;;;14.00;65.90;;;14.48;53.51;97696.16;5026835;28;20252;-52
2022/05/22 03:29:52;;;;;;;2.65;2.10;;;14.00;65.90;;;14.47;53.23;97691.81;5027409;28;20052;-49
2022/05/22 03:32:20;;;;;;;3.67;2.22;;;14.00;65.60;;;14.44;53.44;97701.03;5028898;28;20393;-52
2022/05/22 03:34:56;;;;;;;3.75;2.05;;;13.90;65.80;;;14.42;53.29;97699.56;5043137;28;20057;-53
2022/05/22 03:37:25;;;;;;;2.92;2.00;;;13.80;65.80;;;14.40;53.38;97697.06;5028613;28;20055;-49
2022/05/22 03:39:58;;;;;;;3.10;1.80;;;13.90;65.60;;;14.39;53.24;97700.78;5027210;28;20061;-51
2022/05/22 03:42:26;;;;;;;7.05;2.03;;;13.80;65.70;;;14.34;53.41;97701.31;5027883;28;20045;-50
2022/05/22 03:44:54;;;;;;;2.83;2.10;;;13.70;66.30;;;14.30;53.51;97701.88;5029491;28;20049;-49
2022/05/22 03:47:23;;;;;;;3.22;2.05;;;13.70;67.00;;;14.28;53.52;97698.56;5026362;28;20053;-51
2022/05/22 03:50:05;;;;;;;3.38;2.17;;;13.70;66.80;;;14.26;53.55;97695.22;5028867;28;20063;-52
2022/05/22 03:52:36;;;;;;;4.30;2.05;;;13.60;66.90;;;14.23;53.66;97696.44;5026109;28;20072;-49
2022/05/22 03:55:11;;;;;;;2.00;1.80;;;13.60;67.10;;;14.20;53.68;97690.59;5026603;28;20053;-50
2022/05/22 03:57:39;;;;;;;5.35;2.25;;;13.60;67.20;;;14.18;53.92;97682.75;5027975;28;20246;-50
2022/05/22 04:00:10;;;;;;;2.95;1.75;;;13.60;67.10;;;14.13;54.56;97691.34;5044220;28;20263;-50
2022/05/22 04:02:43;;;;;;;3.03;2.00;;;13.60;67.50;;;14.13;54.72;97679.78;5028577;28;20437;-52
2022/05/22 04:05:15;;;;;;;3.17;2.17;;;13.60;67.60;;;14.13;54.75;97667.25;5041705;28;20128;-52
2022/05/22 04:07:48;;;;;;;4.18;2.00;;;13.70;67.60;;;14.15;54.73;97672.41;5042169;28;20317;-48
2022/05/22 04:10:24;;;;;;;3.33;2.10;;;13.80;67.70;;;14.17;54.51;97670.38;5025620;28;20075;-54
2022/05/22 04:12:53;;;;;;;3.13;2.40;;;13.70;67.40;;;14.17;55.19;97676.56;5042685;28;20061;-50
2022/05/22 04:15:22;;;;;;;3.40;2.15;;;13.80;67.40;;;14.19;54.72;97668.38;5027214;28;20072;-49
2022/05/22 04:17:54;;;;;;;3.83;2.50;;;13.80;67.50;;;14.18;55.08;97669.38;5026191;28;20075;-51
2022/05/22 04:20:25;;;;;;;2.72;2.10;;;13.80;67.70;;;14.18;55.08;97678.22;5026567;28;20057;-51
2022/05/22 04:25:59;;;;;;;4.38;2.63;;;13.80;68.00;;;14.23;55.05;97664.31;5028156;28;20057;-49
2022/05/22 04:28:29;;;;;;;3.08;2.20;;;13.80;68.00;;;14.25;55.13;97664.94;5027170;28;20179;-52
2022/05/22 04:31:06;;;;;;;2.95;2.22;;;13.90;68.20;;;14.29;55.18;97668.09;5027145;28;20050;-51
2022/05/22 04:33:45;;;;;;;3.10;2.10;;;13.90;68.00;;;14.33;55.03;97662.16;5043277;28;20366;-52
2022/05/22 04:36:13;;;;;;;4.40;2.58;;;14.00;67.80;;;14.41;54.83;97669.28;5025290;28;20060;-49
2022/05/22 04:38:41;;;;;;;2.50;1.92;;;14.10;67.50;;;14.46;54.98;97671.41;5042270;28;20375;-50
2022/05/22 04:41:09;;;;;;;5.20;2.15;;;14.10;67.30;;;14.46;55.03;97674.06;5025447;28;20061;-49
2022/05/22 04:43:37;;;;;;;3.15;2.53;;;14.00;67.70;;;14.46;54.73;97682.97;5025752;28;20057;-50
2022/05/22 04:46:08;;;;;;;3.30;2.50;;;14.00;67.80;;;14.46;55.00;97674.06;5027310;28;20067;-50
2022/05/22 04:48:36;;;;;;;2.95;2.30;;;14.00;68.20;;;14.46;54.98;97672.25;5025034;28;20256;-50
2022/05/22 04:51:05;;;;;;;4.82;2.33;;;14.00;68.20;;;14.46;54.99;97671.41;5024603;28;20049;-51
2022/05/22 04:53:53;;;;;;;3.28;2.50;;;14.00;68.20;;;14.48;55.29;97669.38;5024929;28;20061;-48
2022/05/22 04:56:33;;;;;;;3.85;2.50;;;14.00;68.30;;;14.51;55.20;97661.78;5027679;28;20127;-49
2022/05/22 04:59:11;;;;;;;3.20;2.45;;;14.20;68.20;;;14.56;55.04;97661.25;5025816;28;20053;-52
2022/05/22 05:01:39;;;;;;;4.95;2.80;;;14.20;68.00;;;14.58;54.98;97667.28;5024852;28;20061;-51
2022/05/22 05:04:14;;;;;;;5.13;2.80;;;14.20;67.90;;;14.60;54.97;97669.75;5009299;28;20245;-49
2022/05/22 05:06:53;;;;;;;3.58;2.30;;;14.20;68.00;;;14.61;55.27;97663.41;5042315;28;20055;-51
2022/05/22 05:09:40;;;;;;;2.95;2.63;;;14.20;68.10;;;14.65;55.24;97659.31;5025972;28;20049;-52
2022/05/22 05:12:23;;;;;;;2.70;2.20;;;14.30;68.50;;;14.66;55.38;97664.50;5041120;28;20072;-48
2022/05/22 05:14:51;;;;;;;3.17;2.08;;;14.40;68.30;;;14.72;55.57;97657.56;5041961;28;20067;-51
2022/05/22 05:17:20;;;;;;;4.15;2.55;;;14.40;68.00;;;14.76;55.45;97648.94;5026302;28;20057;-50
2022/05/22 05:19:51;;;;;;;3.70;2.88;;;14.50;67.90;;;14.83;55.49;97650.88;5026594;28;20061;-51
2022/05/22 05:22:19;;;;;;;3.67;2.35;;;14.60;67.80;;;14.87;55.46;97646.78;5024856;28;20057;-52
2022/05/22 05:24:57;;;;;;;4.28;2.97;;;14.70;67.80;;;14.92;55.55;97657.78;5024874;28;20045;-52
2022/05/22 05:27:30;;;;;;;4.90;2.67;;;14.70;68.10;;;14.92;55.40;97661.28;5025488;28;20049;-54
2022/05/22 05:30:13;;;;;;;4.85;2.88;;;14.70;67.90;;;14.98;55.25;97658.88;5024139;28;20049;-54
2022/05/22 05:32:45;;;;;;;3.10;2.63;;;14.70;67.80;;;15.00;55.65;97660.34;5024670;28;20347;-52
2022/05/22 05:35:33;;;;;;;3.83;3.10;;;14.70;68.50;;;15.03;55.83;97660.00;5025271;28;20060;-52
2022/05/22 05:38:04;;;;;;;5.30;2.78;;;14.70;69.10;;;15.06;55.89;97658.78;5041604;28;20058;-55
2022/05/22 05:40:33;;;;;;;4.03;2.70;;;14.80;68.90;;;15.10;56.10;97649.31;5024521;28;20482;-54
2022/05/22 05:43:03;;;;;;;4.32;2.85;;;14.80;69.40;;;15.12;56.10;97653.50;5025256;28;20061;-52
2022/05/22 05:45:33;;;;;;;5.80;2.72;;;14.90;69.50;;;15.13;55.91;97654.31;5025263;28;20049;-52
2022/05/22 05:48:02;;;;;;;2.72;2.25;;;15.00;68.50;;;15.17;56.10;97647.56;5041482;28;20359;-51
2022/05/22 05:50:36;;;;;;;4.25;2.58;;;15.00;68.30;;;15.21;55.89;97648.81;5041080;28;20053;-49
2022/05/22 05:53:26;;;;;;;3.78;2.75;;;15.00;67.90;;;15.22;56.16;97655.88;5024982;28;20228;-53
2022/05/22 05:56:13;;;;;;;4.82;2.97;;;15.00;68.40;;;15.24;56.28;97653.81;5030458;28;20542;-52
2022/05/22 05:59:11;;;;;;;3.55;2.63;;;15.10;68.60;;;15.26;56.43;97650.97;5025215;28;20084;-49
2022/05/22 06:01:48;;;;;;;4.47;2.88;;;15.20;68.50;;;15.27;56.43;97647.25;5023998;28;20056;-51
2022/05/22 06:04:18;;;;;;;6.10;3.33;;;15.30;68.40;;;15.33;56.33;97647.31;5025255;28;20057;-51
2022/05/22 06:06:47;;;;;;;5.28;3.15;;;15.30;68.20;;;15.39;56.40;97648.38;5026922;28;20052;-52
2022/05/22 06:09:17;;;;;;;4.25;2.65;;;15.40;68.10;;;15.47;56.47;97642.91;5025187;28;20348;-51
2022/05/22 06:12:06;;;;;;;4.07;2.53;;;15.50;68.40;;;15.56;56.32;97638.22;5024586;28;20057;-53
2022/05/22 06:14:37;;;;;;;5.47;2.95;;;15.50;68.10;;;15.62;56.21;97637.44;5007616;28;20072;-52
2022/05/22 06:17:06;;;;;;;5.20;2.50;;;15.60;68.00;;;15.68;56.18;97628.66;5024768;28;20049;-49
2022/05/22 06:19:57;;;;;;;5.85;3.33;;;15.60;67.90;;;15.73;56.19;97631.59;5040119;28;20465;-50
2022/05/22 06:22:44;;;;;;;5.00;3.00;;;15.80;67.80;;;15.82;56.50;97634.97;5037123;28;20240;-49
2022/05/22 06:25:31;;;;;;;4.65;3.30;;;15.80;67.80;;;15.90;56.37;97634.81;5026660;28;20064;-52
2022/05/22 06:28:23;;;;;;;3.83;2.50;;;15.90;67.80;;;15.98;56.22;97641.06;5039710;28;20243;-51
2022/05/22 06:31:14;;;;;;;4.30;2.60;;;16.00;67.80;;;16.04;56.26;97646.47;5010534;28;20360;-49
2022/05/22 06:33:58;;;;;;;3.97;3.45;;;16.10;67.80;;;16.14;56.31;97648.81;5025162;28;20059;-49
2022/05/22 06:36:51;;;;;;;4.28;3.13;;;16.20;67.70;;;16.24;56.06;97651.97;5027579;28;20057;-50
2022/05/22 06:39:49;;;;;;;4.57;2.53;;;16.30;67.40;;;16.32;55.73;97653.69;5026295;28;20057;-54
2022/05/22 06:42:34;;;;;;;4.40;2.40;;;16.30;66.80;;;16.37;55.38;97659.28;5028750;28;20259;-50
2022/05/22 06:45:19;;;;;;;4.57;2.63;;;16.40;66.00;;;16.42;55.20;97656.00;5027003;28;20062;-49
2022/05/22 06:48:05;;;;;;;4.65;2.78;;;16.50;65.90;;;16.48;55.17;97650.69;5031319;28;20052;-51
2022/05/22 06:51:12;;;;;;;3.60;2.50;;;16.50;65.80;;;16.56;55.32;97652.38;5026539;28;20057;-53
2022/05/22 06:54:00;;;;;;;2.70;1.90;;;16.60;65.90;;;16.65;55.17;97644.97;5025536;28;20061;-51
2022/05/22 06:56:53;;;;;;;3.53;2.45;;;16.70;65.60;;;16.71;55.31;97658.44;5022376;28;20055;-53
2022/05/22 06:59:55;;;;;;;5.22;2.50;;;16.80;65.30;;;16.82;54.82;97658.94;5023602;28;20056;-50
2022/05/22 07:02:42;;;;;;;3.22;1.90;;;16.90;65.10;;;16.88;54.79;97652.75;5010382;28;20370;-54
2022/05/22 07:05:42;;;;;;;2.92;2.50;;;17.00;64.40;;;16.96;54.37;97659.81;5016869;28;20351;-52
2022/05/22 07:08:28;;;;;;;3.25;2.13;;;17.10;64.20;;;17.01;54.43;97660.88;5011994;28;20056;-51
2022/05/22 07:14:21;;;;;;;4.50;2.60;;;17.20;64.10;;;17.17;54.51;97656.16;5013579;28;20109;-49
2022/05/22 07:17:11;;;;;;;5.80;2.58;;;17.30;63.90;;;17.24;54.44;97648.94;5009115;28;20052;-54
2022/05/22 07:20:00;;;;;;;4.38;2.40;;;17.40;63.80;;;17.30;54.16;97645.44;5008371;28;20057;-50
2022/05/22 07:22:43;;;;;;;4.03;2.25;;;17.50;63.30;;;17.36;54.27;97649.16;5009353;28;20052;-54
2022/05/22 07:25:30;;;;;;;4.50;2.60;;;17.50;63.40;;;17.43;54.48;97637.38;5012813;28;20065;-54
2022/05/22 07:28:07;;;;;;;3.53;2.63;;;17.60;63.50;;;17.50;54.28;97634.69;5010268;28;20054;-51
2022/05/22 07:30:57;;;;;;;3.20;2.50;;;17.70;63.50;;;17.58;54.02;97633.66;5008268;28;20049;-50
2022/05/22 07:33:34;;;;;;;8.65;2.75;;;17.80;63.60;;;17.65;54.25;97629.09;5008550;28;20650;-52
2022/05/22 07:36:37;;;;;;;2.80;2.20;;;17.80;63.60;;;17.71;54.24;97626.41;5006195;28;20054;-54
2022/05/22 07:39:26;;;;;;;2.95;2.25;;;17.90;63.30;;;17.79;53.81;97625.38;4988417;28;20046;-51
2022/05/22 07:42:26;;;;;;;3.28;2.35;;;18.00;62.80;;;17.85;53.74;97623.75;4995721;28;20049;-53
2022/05/22 07:45:18;;;;;;;3.03;2.30;;;18.00;62.50;;;17.90;53.67;97615.88;5005749;28;20046;-49
2022/05/22 07:48:06;;;;;;;3.25;2.85;;;18.10;62.50;;;17.94;53.44;97618.97;5007392;28;20271;-53
2022/05/22 07:51:00;;;;;;;3.72;2.20;;;18.10;62.40;;;18.00;53.38;97613.56;5006173;28;20264;-51
2022/05/22 07:53:54;;;;;;;3.30;2.55;;;18.10;62.20;;;18.04;53.37;97617.50;5029894;28;20229;-52
2022/05/22 07:56:43;;;;;;;2.85;2.30;;;18.20;62.20;;;18.11;53.24;97612.13;5007327;28;20046;-52
2022/05/22 07:59:35;;;;;;;2.40;2.00;;;18.20;62.20;;;18.18;52.83;97607.53;5014486;28;20063;-51
2022/05/22 08:02:18;;;;;;;3.15;2.38;;;18.30;61.30;;;18.22;52.64;97608.78;5035108;28;20057;-51
2022/05/22 08:04:50;;;;;;;3.97;2.20;;;18.40;61.10;;;18.26;52.46;97604.63;5035483;28;20041;-47
2022/05/22 08:07:36;;;;;;;2.78;1.85;;;18.40;60.70;;;18.28;52.37;97599.00;5034061;28;20075;-51
2022/05/22 08:10:24;;;;;;;2.75;2.00;;;18.40;60.60;;;18.32;52.33;97594.03;5034001;28;20189;-49
2022/05/22 08:12:56;;;;;;;4.88;2.25;;;18.50;60.60;;;18.38;52.14;97594.03;5019448;28;20055;-51
2022/05/22 08:15:32;;;;;;;6.82;2.47;;;18.50;60.00;;;18.44;52.06;97589.66;5037173;28;20049;-50
2022/05/22 08:18:12;;;;;;;3.50;2.65;;;18.60;60.10;;;18.48;52.37;97588.19;5030091;28;20367;-49
2022/05/22 08:20:43;;;;;;;3.55;2.90;;;18.60;60.60;;;18.53;52.47;97582.97;5033228;28;20358;-51
2022/05/22 08:23:21;;;;;;;5.15;2.15;;;18.70;60.40;;;18.56;51.64;97579.03;5034272;28;20067;-51
2022/05/22 08:25:52;;;;;;;6.00;2.33;;;18.80;59.70;;;18.59;50.94;97582.13;5049943;28;20236;-50
2022/05/22 08:28:22;;;;;;;3.03;2.20;;;18.80;58.40;;;18.56;50.46;97574.47;5044017;28;20294;-51
2022/05/22 08:30:50;;;;;;;4.72;2.20;;;18.80;57.40;;;18.61;50.43;97573.81;5045883;28;20332;-53
2022/05/22 08:33:21;;;;;;;2.70;2.05;;;18.80;57.40;;;18.66;50.24;97571.31;5047262;28;20037;-55
2022/05/22 08:35:49;;;;;;;4.28;2.30;;;18.90;57.30;;;18.72;49.92;97572.31;5047585;28;20051;-53
2022/05/22 08:38:35;;;;;;;3.05;2.17;;;18.90;56.90;;;18.77;49.48;97572.50;5046905;28;20386;-54
2022/05/22 08:41:06;;;;;;;4.07;2.33;;;19.00;55.70;;;18.78;49.06;97569.56;5045684;28;20258;-48
2022/05/22 08:44:12;;;;;;;2.83;2.30;;;19.00;55.60;;;18.78;49.61;97569.56;5046170;28;20074;-53
2022/05/22 08:46:58;;;;;;;2.85;2.08;;;19.10;55.20;;;18.83;49.02;97561.69;5045508;28;20069;-53
2022/05/22 08:49:48;;;;;;;3.47;2.20;;;19.00;55.20;;;18.87;49.49;97552.13;5047646;28;20343;-52
2022/05/22 08:52:46;;;;;;;2.40;1.80;;;19.10;56.10;;;18.94;49.39;97553.97;5045870;28;20048;-54
2022/05/22 08:58:56;;;;;;;2.95;2.10;;;19.10;56.30;;;19.01;49.79;97557.44;5045318;28;20064;-54
2022/05/22 09:01:29;;;;;;;4.65;3.10;;;19.30;56.30;;;19.13;48.59;97555.69;5045501;28;20049;-51
2022/05/22 09:04:11;;;;;;;2.65;2.15;;;19.30;55.00;;;19.16;48.79;97541.78;5044810;28;20236;-51
2022/05/22 09:06:56;;;;;;;6.25;2.17;;;19.40;55.10;;;19.24;48.53;97543.41;5047112;28;20093;-50
2022/05/22 09:09:29;;;;;;;3.33;2.67;;;19.40;55.10;;;19.26;48.34;97542.13;5046006;28;20045;-54
2022/05/22 09:12:30;;;;;;;2.53;2.20;;;19.50;55.10;;;19.33;47.56;97534.00;5045614;28;20053;-55
2022/05/22 09:15:34;;;;;;;2.17;1.80;;;19.50;52.60;;;19.33;47.94;97542.09;5044705;28;20352;-53
2022/05/22 09:18:25;;;;;;;2.90;1.80;;;19.50;53.40;;;19.38;46.65;97534.13;5046134;28;20041;-53
2022/05/22 09:21:06;;;;;;;2.90;2.58;;;19.60;53.20;;;19.40;46.07;97523.94;5047230;28;20235;-51
2022/05/22 09:23:59;;;;;;;2.45;1.90;;;19.60;51.80;;;19.43;47.46;97536.19;5046203;28;20263;-52
2022/05/22 09:26:47;;;;;;;2.00;1.77;;;19.60;52.30;;;19.48;46.35;97541.72;5046665;28;20068;-50
2022/05/22 09:29:47;;;;;;;2.20;1.98;;;19.80;50.60;;;19.44;46.09;97533.28;5045204;28;20057;-54
2022/05/22 09:32:34;;;;;;;2.85;2.08;;;19.70;49.90;;;19.47;45.78;97534.69;5046494;28;20070;-52
2022/05/22 09:35:38;;;;;;;3.33;1.88;;;19.60;51.40;;;19.46;46.23;97531.19;5045126;28;20053;-49
2022/05/22 09:38:15;;;;;;;4.00;1.90;;;19.60;50.70;;;19.46;46.27;97528.47;5045643;28;20045;-50
2022/05/22 09:40:53;;;;;;;3.80;1.90;;;19.60;51.90;;;19.52;46.85;97526.75;5045552;28;20052;-50
2022/05/22 09:44:10;;;;;;;2.35;1.98;;;19.80;52.50;;;19.62;46.73;97527.09;5044425;28;20063;-51
2022/05/22 09:47:16;;;;;;;3.22;1.95;;;19.90;51.90;;;19.80;46.62;97528.19;5055257;28;20056;-49
2022/05/22 09:50:07;;;;;;;7.22;3.33;;;20.10;52.70;;;19.91;45.72;97526.63;5045837;28;20273;-49
2022/05/22 09:52:55;;;;;;;2.38;1.90;;;20.20;51.70;;;20.00;45.83;97525.28;5044174;28;20235;-54
2022/05/22 09:55:32;;;;;;;2.92;2.33;;;20.40;51.60;;;20.01;45.55;97527.75;5046073;28;20048;-51
2022/05/22 09:58:29;;;;;;;3.40;1.70;;;20.40;50.10;;;20.03;45.35;97519.44;5046419;28;20298;-53
2022/05/22 10:01:44;;;;;;;5.43;2.17;;;20.40;49.70;;;20.06;44.83;97522.53;5043978;28;20057;-37
2022/05/22 10:04:49;;;;;;;2.72;2.25;;;20.40;50.00;;;20.12;45.74;97504.56;5044695;28;20037;-36
2022/05/22 10:07:46;;;;;;;2.53;2.15;;;20.50;51.00;;;20.26;44.78;97506.06;5044474;28;20084;-37
2022/05/22 10:10:46;;;;;;;7.13;2.25;;;20.70;50.00;;;20.34;44.32;97502.22;5049131;28;20059;-36
2022/05/22 10:13:20;;;;;;;2.35;1.92;;;20.90;49.00;;;20.47;44.32;97509.31;5048631;28;20079;-36
2022/05/22 10:15:54;;;;;;;3.13;2.10;;;21.10;49.20;;;20.57;44.52;97511.50;5050208;28;20071;-36
2022/05/22 10:19:08;;;;;;;4.45;1.80;;;21.10;49.20;;;20.57;44.38;97500.66;5048807;28;20362;-37
2022/05/22 10:21:39;;;;;;;4.20;2.08;;;21.20;47.90;;;20.80;44.84;97500.81;5047799;28;20040;-36
2022/05/22 10:24:41;;;;;;;3.17;1.90;;;21.40;49.10;;;20.73;42.39;97500.06;5049079;28;20057;-36
2022/05/22 10:27:47;;;;;;;3.25;1.70;;;21.60;47.40;;;21.00;43.87;97500.50;5049444;28;20045;-37
2022/05/22 10:30:26;;;;;;;5.05;2.20;;;21.60;47.30;;;21.13;42.90;97499.50;5046443;28;20068;-35
2022/05/22 10:33:11;;;;;;;2.67;2.20;;;21.70;47.10;;;21.26;43.57;97493.03;5048397;28;20407;-40
2022/05/22 10:35:42;;;;;;;2.03;1.55;;;21.70;47.00;;;;;;5047428;28;20049;-41
2022/05/22 10:38:23;;;;;;;3.55;2.58;;;21.80;47.70;;;21.52;43.28;97482.81;5048978;28;20053;-41
2022/05/22 10:43:52;;;;;;;3.50;2.05;;;22.10;48.10;;;21.83;43.21;97474.34;5048619;28;20052;-40
2022/05/22 10:46:20;;;;;;;2.72;2.10;;;22.40;46.80;;;21.98;42.60;97473.00;5048470;28;20348;-40
2022/05/22 10:48:56;;;;;;;4.55;2.40;;;22.50;46.80;;;22.03;42.00;97462.28;5048002;28;20072;-37
2022/05/22 10:51:28;;;;;;;3.95;2.10;;;22.50;45.40;;;22.08;42.04;97456.97;5049339;28;20224;-40
2022/05/22 10:53:59;;;;;;;2.20;2.00;;;22.60;45.30;;;22.07;41.23;97447.19;5048358;28;20057;-40
2022/05/22 10:56:34;;;;;;;3.00;2.42;;;22.40;45.50;;;22.18;42.03;97445.53;5048748;28;20044;-40
2022/05/22 10:59:17;;;;;;;2.85;2.08;;;22.60;46.50;;;22.29;40.83;97441.94;5048107;28;20049;-40
2022/05/22 11:02:03;;;;;;;2.28;1.67;;;22.80;44.50;;;22.40;40.83;97438.38;5046353;28;20053;-40
2022/05/22 11:04:43;;;;;;;2.78;2.08;;;22.90;43.60;;;22.46;39.03;97438.47;5047009;28;20242;-39
2022/05/22 11:07:12;;;;;;;2.95;2.25;;;23.00;41.90;;;22.41;39.44;97445.47;5048654;28;20041;-40
2022/05/22 11:09:51;;;;;;;3.90;2.92;;;22.80;43.00;;;22.45;40.47;97434.97;5046520;28;20361;-39
2022/05/22 11:12:27;;;;;;;3.92;2.03;;;22.80;43.20;;;22.40;39.59;97429.44;5048776;28;20071;-39
2022/05/22 11:15:29;;;;;;;4.07;1.80;;;22.70;43.00;;;22.42;39.31;97419.16;5047536;28;20053;-40
2022/05/22 11:18:10;;;;;;;3.20;1.80;;;22.80;42.60;;;22.51;39.61;97416.91;5048434;28;20060;-40
2022/05/22 11:20:46;;;;;;;4.95;1.98;;;22.80;42.90;;;22.55;39.00;97415.34;5047028;28;20055;-39
2022/05/22 11:23:28;;;;;;;3.85;1.75;;;22.90;43.10;;;22.60;39.41;97418.97;5048834;28;20067;-39
2022/05/22 11:26:25;;;;;;;2.73;2.03;;;22.90;43.20;;;22.64;38.77;97418.47;5046955;28;20037;-39
2022/05/22 11:29:06;;;;;;;2.47;1.88;;;23.00;42.20;;;22.65;38.71;97409.28;5047545;28;20056;-38